Terminal Aerodrome Forecast
Issued by NWS

Home | Current Version | Previous Version | Text Only | Print | Product List | Glossary On
Versions: 1 2 3 4 5 6 7 8 9 10 11 12 13 14 15 16 17 18 19 20 21 22
000
FTUS46 KLOX 261207 AAA
TAFSBA
TAF AMD
KSBA 261207Z 2612/2712 VRB03KT P6SM OVC050
     FM261700 16006KT P6SM OVC050
     FM262200 23008KT P6SM SCT050
     FM270000 26012KT P6SM BKN025
     FM270400 VRB03KT P6SM OVC030
     FM270800 VRB03KT P6SM OVC035=

USA.gov is the U.S. government's official web portal to all federal, state and local government web resources and services.